Hilger, Montana
Current Conditions -  °F | °C
As of 7:54 PM on Sunday 23 Nov 2014 (Local Time) from KLWT Reporting Station
Broken Clouds Broken Clouds  
Wind Chill: 28°   Ceiling: 11000
Heat Index: 36°   Visibility: 10mi
Dew Point: 20°   Wind: 13mph
Humidity: 52%   Direction: 260°W
Pressure: 29.79"   Gusts: NA
Location:  47.25°N, 109.36°W
Report Text: KLWT 240254Z AUTO 26011KT 10SM BKN110 02/M07 A2979 RMK AO2 SLP112 T00221067 56014
Loading
Personal Weather Stations






























Interactive Weather Map New forecast layout! Learn more

10-Day Weather Forecast

Advertisements
Track Severe Weather on mobile